Time,TemperatureF,DewpointF,PressureIn,WindDirection,WindDirectionDegrees,WindSpeedMPH,WindSpeedGustMPH,Humidity,HourlyPrecipIn,Conditions,Clouds,dailyrainin,SoftwareType,DateUTC
2013-05-02 00:03:00,47.0,36.0,-100.00,ESE,120,2.0,3.0,66,-99.99,,,-99.99,,2013-05-02 04:03:00,
2013-05-02 00:12:00,46.0,36.0,-100.00,SE,135,2.0,3.0,68,-99.99,,,-99.99,,2013-05-02 04:12:00,
2013-05-02 00:23:00,46.0,36.0,-100.00,SE,135,2.0,3.0,68,-99.99,,,-99.99,,2013-05-02 04:23:00,
2013-05-02 00:33:00,46.0,37.0,-100.00,ESE,105,3.0,5.0,70,-99.99,,,-99.99,,2013-05-02 04:33:00,
2013-05-02 00:43:00,46.0,37.0,-100.00,SE,130,2.0,5.0,70,-99.99,,,-99.99,,2013-05-02 04:43:00,
2013-05-02 00:52:00,46.0,37.0,-100.00,SE,130,2.0,5.0,70,-99.99,,,-99.99,,2013-05-02 04:52:00,
2013-05-02 01:02:00,46.0,37.0,-100.00,ESE,115,3.0,4.0,72,-99.99,,,-99.99,,2013-05-02 05:02:00,
2013-05-02 01:12:00,45.0,37.0,-100.00,SE,125,3.0,3.0,73,-99.99,,,-99.99,,2013-05-02 05:12:00,
2013-05-02 01:22:00,45.0,37.0,-100.00,SE,125,3.0,3.0,73,-99.99,,,-99.99,,2013-05-02 05:22:00,
2013-05-02 01:32:00,45.0,37.0,-100.00,ESE,110,2.0,3.0,74,-99.99,,,-99.99,,2013-05-02 05:32:00,
2013-05-02 01:42:00,45.0,38.0,-100.00,ESE,110,2.0,3.0,75,-99.99,,,-99.99,,2013-05-02 05:42:00,
2013-05-02 01:52:00,45.0,38.0,-100.00,ESE,110,2.0,3.0,75,-99.99,,,-99.99,,2013-05-02 05:52:00,
2013-05-02 02:01:00,45.0,38.0,-100.00,SE,130,1.0,2.0,76,-99.99,,,-99.99,,2013-05-02 06:01:00,
2013-05-02 02:12:00,44.0,38.0,-100.00,ESE,120,2.0,3.0,78,-99.99,,,-99.99,,2013-05-02 06:12:00,
2013-05-02 02:22:00,44.0,38.0,-100.00,ESE,120,2.0,3.0,78,-99.99,,,-99.99,,2013-05-02 06:22:00,
2013-05-02 02:32:00,44.0,38.0,-100.00,ESE,105,3.0,3.0,79,-99.99,,,-99.99,,2013-05-02 06:32:00,
2013-05-02 02:42:00,44.0,38.0,-100.00,ESE,105,3.0,3.0,79,-99.99,,,-99.99,,2013-05-02 06:42:00,
2013-05-02 03:02:00,44.0,38.0,-100.00,ESE,110,3.0,4.0,80,-99.99,,,-99.99,,2013-05-02 07:02:00,
2013-05-02 03:11:00,44.0,39.0,-100.00,SE,135,3.0,3.0,82,-99.99,,,-99.99,,2013-05-02 07:11:00,
2013-05-02 03:21:00,44.0,39.0,-100.00,SE,135,3.0,3.0,82,-99.99,,,-99.99,,2013-05-02 07:21:00,
2013-05-02 03:32:00,43.0,39.0,-100.00,SE,135,3.0,3.0,83,-99.99,,,-99.99,,2013-05-02 07:32:00,
2013-05-02 03:42:00,43.0,39.0,-100.00,ESE,115,2.0,3.0,84,-99.99,,,-99.99,,2013-05-02 07:42:00,
2013-05-02 03:52:00,43.0,39.0,-100.00,ESE,115,2.0,3.0,84,-99.99,,,-99.99,,2013-05-02 07:52:00,
2013-05-02 04:02:00,43.0,38.0,-100.00,SE,125,3.0,3.0,84,-99.99,,,-99.99,,2013-05-02 08:02:00,
2013-05-02 04:11:00,42.0,38.0,-100.00,SE,125,4.0,4.0,84,-99.99,,,-99.99,,2013-05-02 08:11:00,
2013-05-02 04:22:00,42.0,38.0,-100.00,SE,125,4.0,4.0,84,-99.99,,,-99.99,,2013-05-02 08:22:00,
2013-05-02 04:32:00,42.0,38.0,-100.00,SE,125,4.0,5.0,85,-99.99,,,-99.99,,2013-05-02 08:32:00,
2013-05-02 04:42:00,42.0,38.0,-100.00,SE,130,3.0,5.0,85,-99.99,,,-99.99,,2013-05-02 08:42:00,
2013-05-02 04:52:00,42.0,38.0,-100.00,SE,130,3.0,5.0,85,-99.99,,,-99.99,,2013-05-02 08:52:00,
2013-05-02 05:02:00,42.0,38.0,-100.00,ESE,115,3.0,4.0,86,-99.99,,,-99.99,,2013-05-02 09:02:00,
2013-05-02 05:12:00,41.0,37.0,-100.00,SE,135,2.0,3.0,86,-99.99,,,-99.99,,2013-05-02 09:12:00,
2013-05-02 05:22:00,41.0,37.0,-100.00,SE,135,2.0,3.0,86,-99.99,,,-99.99,,2013-05-02 09:22:00,
2013-05-02 05:33:00,41.0,37.0,-100.00,SE,135,2.0,2.0,86,-99.99,,,-99.99,,2013-05-02 09:33:00,
2013-05-02 05:42:00,41.0,37.0,-100.00,SE,130,2.0,2.0,86,-99.99,,,-99.99,,2013-05-02 09:42:00,
2013-05-02 05:52:00,41.0,37.0,-100.00,SE,130,2.0,2.0,86,-99.99,,,-99.99,,2013-05-02 09:52:00,
2013-05-02 06:03:00,41.0,37.0,-100.00,SE,130,2.0,3.0,86,-99.99,,,-99.99,,2013-05-02 10:03:00,
2013-05-02 06:12:00,41.0,37.0,-100.00,ESE,110,3.0,4.0,86,-99.99,,,-99.99,,2013-05-02 10:12:00,
2013-05-02 06:23:00,41.0,37.0,-100.00,ESE,110,3.0,4.0,86,-99.99,,,-99.99,,2013-05-02 10:23:00,
2013-05-02 06:33:00,41.0,37.0,-100.00,SSE,155,1.0,2.0,86,-99.99,,,-99.99,,2013-05-02 10:33:00,
2013-05-02 06:42:00,41.0,37.0,-100.00,SSE,150,1.0,2.0,86,-99.99,,,-99.99,,2013-05-02 10:42:00,
2013-05-02 06:53:00,41.0,37.0,-100.00,SSE,150,1.0,2.0,86,-99.99,,,-99.99,,2013-05-02 10:53:00,
2013-05-02 07:02:00,42.0,38.0,-100.00,SE,140,2.0,3.0,86,-99.99,,,-99.99,,2013-05-02 11:02:00,
2013-05-02 07:12:00,43.0,39.0,-100.00,SE,145,1.0,2.0,86,-99.99,,,-99.99,,2013-05-02 11:12:00,
2013-05-02 07:22:00,43.0,39.0,-100.00,SE,145,1.0,2.0,86,-99.99,,,-99.99,,2013-05-02 11:22:00,
2013-05-02 07:32:00,45.0,41.0,-100.00,SE,145,2.0,3.0,86,-99.99,,,-99.99,,2013-05-02 11:32:00,
2013-05-02 07:42:00,47.0,43.0,-100.00,West,270,0.0,1.0,83,-99.99,,,-99.99,,2013-05-02 11:42:00,
2013-05-02 07:52:00,47.0,43.0,-100.00,West,270,0.0,1.0,83,-99.99,,,-99.99,,2013-05-02 11:52:00,
2013-05-02 08:01:00,49.0,42.0,-100.00,ESE,105,2.0,3.0,76,-99.99,,,-99.99,,2013-05-02 12:01:00,
2013-05-02 08:12:00,52.0,39.0,-100.00,NE,55,2.0,3.0,61,-99.99,,,-99.99,,2013-05-02 12:12:00,
2013-05-02 08:22:00,52.0,39.0,-100.00,NE,55,2.0,3.0,61,-99.99,,,-99.99,,2013-05-02 12:22:00,
2013-05-02 08:32:00,54.0,38.0,-100.00,East,100,3.0,3.0,55,-99.99,,,-99.99,,2013-05-02 12:32:00,
2013-05-02 08:42:00,55.0,36.0,-100.00,ESE,115,4.0,5.0,50,-99.99,,,-99.99,,2013-05-02 12:42:00,
2013-05-02 08:52:00,55.0,36.0,-100.00,ESE,115,4.0,5.0,50,-99.99,,,-99.99,,2013-05-02 12:52:00,
2013-05-02 09:01:00,55.0,36.0,-100.00,ESE,110,3.0,5.0,49,-99.99,,,-99.99,,2013-05-02 13:01:00,
2013-05-02 09:11:00,56.0,35.0,-100.00,East,80,2.0,5.0,44,-99.99,,,-99.99,,2013-05-02 13:11:00,
2013-05-02 09:22:00,56.0,35.0,-100.00,East,80,2.0,5.0,44,-99.99,,,-99.99,,2013-05-02 13:22:00,
2013-05-02 09:32:00,57.0,33.0,-100.00,ESE,110,2.0,8.0,40,-99.99,,,-99.99,,2013-05-02 13:32:00,
2013-05-02 09:42:00,59.0,30.0,-100.00,SSE,165,2.0,7.0,34,-99.99,,,-99.99,,2013-05-02 13:42:00,
2013-05-02 09:52:00,59.0,30.0,-100.00,SSE,165,2.0,7.0,34,-99.99,,,-99.99,,2013-05-02 13:52:00,
2013-05-02 10:02:00,60.0,30.0,-100.00,ESE,105,4.0,7.0,33,-99.99,,,-99.99,,2013-05-02 14:02:00,
2013-05-02 10:11:00,60.0,31.0,-100.00,South,175,4.0,10.0,33,-99.99,,,-99.99,,2013-05-02 14:11:00,
2013-05-02 10:22:00,60.0,31.0,-100.00,South,175,4.0,10.0,33,-99.99,,,-99.99,,2013-05-02 14:22:00,
2013-05-02 10:32:00,61.0,32.0,-100.00,ESE,115,5.0,8.0,33,-99.99,,,-99.99,,2013-05-02 14:32:00,
2013-05-02 10:43:00,61.0,32.0,-100.00,South,175,3.0,9.0,33,-99.99,,,-99.99,,2013-05-02 14:43:00,
2013-05-02 10:52:00,61.0,32.0,-100.00,South,175,3.0,9.0,33,-99.99,,,-99.99,,2013-05-02 14:52:00,
2013-05-02 11:02:00,63.0,32.0,-100.00,SE,130,5.0,10.0,32,-99.99,,,-99.99,,2013-05-02 15:02:00,
2013-05-02 11:12:00,63.0,32.0,-100.00,ESE,110,8.0,11.0,31,-99.99,,,-99.99,,2013-05-02 15:12:00,
2013-05-02 11:22:00,63.0,32.0,-100.00,ESE,110,8.0,11.0,31,-99.99,,,-99.99,,2013-05-02 15:22:00,
2013-05-02 11:33:00,64.0,32.0,-100.00,SW,225,4.0,10.0,30,-99.99,,,-99.99,,2013-05-02 15:33:00,
2013-05-02 11:43:00,65.0,32.0,-100.00,SE,130,3.0,12.0,29,-99.99,,,-99.99,,2013-05-02 15:43:00,
2013-05-02 12:03:00,66.0,31.0,-100.00,ENE,65,5.0,9.0,27,-99.99,,,-99.99,,2013-05-02 16:03:00,
2013-05-02 12:13:00,67.0,32.0,-100.00,NNE,30,4.0,10.0,27,-99.99,,,-99.99,,2013-05-02 16:13:00,
2013-05-02 12:23:00,67.0,32.0,-100.00,NNE,30,4.0,10.0,27,-99.99,,,-99.99,,2013-05-02 16:23:00,
2013-05-02 12:32:00,67.0,31.0,-100.00,NE,55,3.0,10.0,26,-99.99,,,-99.99,,2013-05-02 16:32:00,
2013-05-02 12:43:00,67.0,30.0,-100.00,East,85,6.0,12.0,25,-99.99,,,-99.99,,2013-05-02 16:43:00,
2013-05-02 12:52:00,67.0,30.0,-100.00,East,85,6.0,12.0,25,-99.99,,,-99.99,,2013-05-02 16:52:00,
2013-05-02 13:02:00,68.0,31.0,-100.00,South,190,2.0,7.0,25,-99.99,,,-99.99,,2013-05-02 17:02:00,
2013-05-02 13:12:00,68.0,30.0,-100.00,ESE,120,6.0,14.0,24,-99.99,,,-99.99,,2013-05-02 17:12:00,
2013-05-02 13:22:00,68.0,30.0,-100.00,ESE,120,6.0,14.0,24,-99.99,,,-99.99,,2013-05-02 17:22:00,
2013-05-02 13:32:00,69.0,31.0,-100.00,SE,140,2.0,9.0,24,-99.99,,,-99.99,,2013-05-02 17:32:00,
2013-05-02 13:42:00,69.0,30.0,-100.00,ENE,70,2.0,11.0,24,-99.99,,,-99.99,,2013-05-02 17:42:00,
2013-05-02 13:52:00,69.0,30.0,-100.00,ENE,70,2.0,11.0,24,-99.99,,,-99.99,,2013-05-02 17:52:00,
2013-05-02 14:01:00,70.0,32.0,-100.00,ESE,115,2.0,8.0,24,-99.99,,,-99.99,,2013-05-02 18:01:00,
2013-05-02 14:12:00,69.0,31.0,-100.00,SE,130,6.0,14.0,24,-99.99,,,-99.99,,2013-05-02 18:12:00,
2013-05-02 14:22:00,69.0,31.0,-100.00,SE,130,6.0,14.0,24,-99.99,,,-99.99,,2013-05-02 18:22:00,
2013-05-02 14:32:00,70.0,31.0,-100.00,SE,125,6.0,11.0,24,-99.99,,,-99.99,,2013-05-02 18:32:00,
2013-05-02 14:42:00,70.0,31.0,-100.00,East,95,6.0,12.0,24,-99.99,,,-99.99,,2013-05-02 18:42:00,
2013-05-02 14:52:00,70.0,31.0,-100.00,East,95,6.0,12.0,24,-99.99,,,-99.99,,2013-05-02 18:52:00,
2013-05-02 15:01:00,71.0,32.0,-100.00,SE,125,4.0,10.0,24,-99.99,,,-99.99,,2013-05-02 19:01:00,
2013-05-02 15:11:00,71.0,32.0,-100.00,ESE,115,3.0,11.0,24,-99.99,,,-99.99,,2013-05-02 19:11:00,
2013-05-02 15:22:00,71.0,32.0,-100.00,ESE,115,3.0,11.0,24,-99.99,,,-99.99,,2013-05-02 19:22:00,
2013-05-02 15:32:00,72.0,32.0,-100.00,ESE,120,4.0,17.0,23,-99.99,,,-99.99,,2013-05-02 19:32:00,
2013-05-02 15:42:00,72.0,33.0,-100.00,East,85,5.0,12.0,24,-99.99,,,-99.99,,2013-05-02 19:42:00,
2013-05-02 15:52:00,72.0,33.0,-100.00,East,85,5.0,12.0,24,-99.99,,,-99.99,,2013-05-02 19:52:00,
2013-05-02 16:02:00,73.0,33.0,-100.00,East,95,6.0,10.0,23,-99.99,,,-99.99,,2013-05-02 20:02:00,
2013-05-02 16:11:00,72.0,32.0,-100.00,South,170,5.0,14.0,23,-99.99,,,-99.99,,2013-05-02 20:11:00,
2013-05-02 16:22:00,72.0,32.0,-100.00,South,170,5.0,14.0,23,-99.99,,,-99.99,,2013-05-02 20:22:00,
2013-05-02 16:32:00,72.0,33.0,-100.00,SSE,155,4.0,10.0,24,-99.99,,,-99.99,,2013-05-02 20:32:00,
2013-05-02 16:42:00,72.0,33.0,-100.00,SSE,155,4.0,10.0,24,-99.99,,,-99.99,,2013-05-02 20:42:00,
2013-05-02 17:01:00,71.0,33.0,-100.00,SSW,200,8.0,12.0,25,-99.99,,,-99.99,,2013-05-02 21:01:00,
2013-05-02 17:12:00,70.0,34.0,-100.00,South,180,7.0,14.0,26,-99.99,,,-99.99,,2013-05-02 21:12:00,
2013-05-02 17:21:00,70.0,34.0,-100.00,South,180,7.0,14.0,26,-99.99,,,-99.99,,2013-05-02 21:21:00,
2013-05-02 17:33:00,70.0,34.0,-100.00,WSW,245,1.0,9.0,26,-99.99,,,-99.99,,2013-05-02 21:33:00,
2013-05-02 17:42:00,71.0,34.0,-100.00,SSW,200,4.0,8.0,26,-99.99,,,-99.99,,2013-05-02 21:42:00,
2013-05-02 17:53:00,71.0,34.0,-100.00,SSW,200,4.0,8.0,26,-99.99,,,-99.99,,2013-05-02 21:53:00,
2013-05-02 18:03:00,71.0,34.0,-100.00,SSW,200,7.0,10.0,26,-99.99,,,-99.99,,2013-05-02 22:03:00,
2013-05-02 18:13:00,70.0,34.0,-100.00,SSE,165,4.0,10.0,26,-99.99,,,-99.99,,2013-05-02 22:13:00,
2013-05-02 18:22:00,70.0,34.0,-100.00,SSE,165,4.0,10.0,26,-99.99,,,-99.99,,2013-05-02 22:22:00,
2013-05-02 18:32:00,70.0,33.0,-100.00,SE,130,6.0,10.0,26,-99.99,,,-99.99,,2013-05-02 22:32:00,
2013-05-02 18:42:00,70.0,33.0,-100.00,SSE,165,5.0,9.0,26,-99.99,,,-99.99,,2013-05-02 22:42:00,
2013-05-02 18:53:00,70.0,33.0,-100.00,SSE,165,5.0,9.0,26,-99.99,,,-99.99,,2013-05-02 22:53:00,
2013-05-02 19:02:00,69.0,33.0,-100.00,South,180,4.0,10.0,26,-99.99,,,-99.99,,2013-05-02 23:02:00,
2013-05-02 19:12:00,68.0,32.0,-100.00,South,185,4.0,8.0,26,-99.99,,,-99.99,,2013-05-02 23:12:00,
2013-05-02 19:22:00,68.0,32.0,-100.00,South,185,4.0,8.0,26,-99.99,,,-99.99,,2013-05-02 23:22:00,
2013-05-02 19:32:00,68.0,32.0,-100.00,SW,215,4.0,8.0,26,-99.99,,,-99.99,,2013-05-02 23:32:00,
2013-05-02 19:42:00,68.0,32.0,-100.00,SSW,200,5.0,9.0,26,-99.99,,,-99.99,,2013-05-02 23:42:00,
2013-05-02 19:52:00,68.0,32.0,-100.00,SSW,200,5.0,9.0,26,-99.99,,,-99.99,,2013-05-02 23:52:00,
2013-05-02 20:01:00,68.0,32.0,-100.00,SSW,205,6.0,12.0,26,-99.99,,,-99.99,,2013-05-03 00:01:00,
2013-05-02 20:11:00,66.0,30.0,-100.00,SW,215,2.0,7.0,26,-99.99,,,-99.99,,2013-05-03 00:11:00,
2013-05-02 20:22:00,66.0,30.0,-100.00,SW,215,2.0,7.0,26,-99.99,,,-99.99,,2013-05-03 00:22:00,
2013-05-02 20:32:00,65.0,30.0,-100.00,SW,215,4.0,7.0,27,-99.99,,,-99.99,,2013-05-03 00:32:00,
2013-05-02 20:42:00,64.0,30.0,-100.00,South,175,2.0,5.0,28,-99.99,,,-99.99,,2013-05-03 00:42:00,
2013-05-02 20:52:00,64.0,30.0,-100.00,South,175,2.0,5.0,28,-99.99,,,-99.99,,2013-05-03 00:52:00,
2013-05-02 21:01:00,63.0,30.0,-100.00,SSW,205,1.0,3.0,29,-99.99,,,-99.99,,2013-05-03 01:01:00,
2013-05-02 21:11:00,61.0,30.0,-100.00,SSE,155,1.0,3.0,31,-99.99,,,-99.99,,2013-05-03 01:11:00,
2013-05-02 21:21:00,61.0,30.0,-100.00,SSE,155,1.0,3.0,31,-99.99,,,-99.99,,2013-05-03 01:21:00,
2013-05-02 21:32:00,61.0,31.0,-100.00,SSW,210,2.0,4.0,32,-99.99,,,-99.99,,2013-05-03 01:32:00,
2013-05-02 21:42:00,61.0,32.0,-100.00,SSW,200,2.0,5.0,33,-99.99,,,-99.99,,2013-05-03 01:42:00,
2013-05-02 21:52:00,61.0,32.0,-100.00,SSW,200,2.0,5.0,33,-99.99,,,-99.99,,2013-05-03 01:52:00,
2013-05-02 22:02:00,61.0,31.0,-100.00,SSW,195,4.0,6.0,32,-99.99,,,-99.99,,2013-05-03 02:02:00,
2013-05-02 22:11:00,61.0,31.0,-100.00,WSW,240,2.0,7.0,32,-99.99,,,-99.99,,2013-05-03 02:11:00,
2013-05-02 22:22:00,61.0,31.0,-100.00,WSW,240,2.0,7.0,32,-99.99,,,-99.99,,2013-05-03 02:22:00,
2013-05-02 22:32:00,61.0,31.0,-100.00,SW,225,2.0,7.0,32,-99.99,,,-99.99,,2013-05-03 02:32:00,
2013-05-02 22:42:00,60.0,30.0,-100.00,SSW,200,2.0,5.0,32,-99.99,,,-99.99,,2013-05-03 02:42:00,
2013-05-02 22:52:00,60.0,30.0,-100.00,SSW,200,2.0,5.0,32,-99.99,,,-99.99,,2013-05-03 02:52:00,
2013-05-02 23:01:00,59.0,30.0,-100.00,South,170,1.0,5.0,33,-99.99,,,-99.99,,2013-05-03 03:01:00,
2013-05-02 23:11:00,58.0,29.0,-100.00,SSE,155,2.0,5.0,34,-99.99,,,-99.99,,2013-05-03 03:11:00,
2013-05-02 23:21:00,58.0,29.0,-100.00,SSE,155,2.0,5.0,34,-99.99,,,-99.99,,2013-05-03 03:21:00,
2013-05-02 23:33:00,57.0,30.0,-100.00,West,265,1.0,4.0,36,-99.99,,,-99.99,,2013-05-03 03:33:00,
2013-05-02 23:43:00,57.0,30.0,-100.00,WSW,245,0.0,1.0,36,-99.99,,,-99.99,,2013-05-03 03:43:00,
2013-05-02 23:53:00,57.0,30.0,-100.00,WSW,245,0.0,1.0,36,-99.99,,,-99.99,,2013-05-03 03:53:00,